createdAt,value
2023-10-29T00:02:17.721Z,25.70
2023-10-29T00:04:52.140Z,22.73
2023-10-29T00:07:19.480Z,24.30
2023-10-29T00:09:46.600Z,24.48
2023-10-29T00:12:20.140Z,24.08
2023-10-29T00:14:47.639Z,23.42
2023-10-29T00:17:21.239Z,23.02
2023-10-29T00:19:51.531Z,25.58
2023-10-29T00:22:25.248Z,27.48
2023-10-29T00:24:52.692Z,25.63
2023-10-29T00:27:19.965Z,29.48
2023-10-29T00:29:55.381Z,21.48
2023-10-29T00:32:23.016Z,25.17
2023-10-29T00:34:50.297Z,23.38
2023-10-29T00:37:27.251Z,26.58
2023-10-29T00:39:54.570Z,26.30
2023-10-29T00:42:28.401Z,28.85
2023-10-29T00:44:55.770Z,27.13
2023-10-29T00:47:23.058Z,27.13
2023-10-29T00:49:57.145Z,26.70
2023-10-29T00:52:31.301Z,26.13
2023-10-29T00:55:05.221Z,28.02
2023-10-29T00:57:32.460Z,30.45
2023-10-29T00:59:59.896Z,29.35
2023-10-29T01:02:34.232Z,30.20
2023-10-29T01:05:02.287Z,29.45
2023-10-29T01:07:36.216Z,28.25
2023-10-29T01:10:03.496Z,26.77
2023-10-29T01:12:30.664Z,29.05
2023-10-29T01:15:04.479Z,24.58
2023-10-29T01:17:31.995Z,24.50
2023-10-29T01:22:34.149Z,35.27
2023-10-29T01:25:02.128Z,34.22
2023-10-29T01:27:37.277Z,36.72
2023-10-29T01:30:05.852Z,29.27
2023-10-29T01:32:33.573Z,34.95
2023-10-29T01:35:07.174Z,28.85
2023-10-29T01:37:34.399Z,32.70
2023-10-29T01:40:08.072Z,29.45
2023-10-29T01:42:35.412Z,28.05
2023-10-29T01:45:04.994Z,28.75
2023-10-29T01:47:39.281Z,31.27
2023-10-29T01:50:13.583Z,27.30
2023-10-29T01:52:47.173Z,24.33
2023-10-29T01:55:14.864Z,29.85
2023-10-29T01:57:42.720Z,31.75
2023-10-29T02:00:17.243Z,34.22
2023-10-29T02:02:46.420Z,31.02
2023-10-29T02:05:20.228Z,24.42
2023-10-29T02:07:48.116Z,29.92
2023-10-29T02:10:22.169Z,28.42
2023-10-29T02:12:49.530Z,25.95
2023-10-29T02:15:17.100Z,29.10
2023-10-29T02:20:18.596Z,26.85
2023-10-29T02:22:52.065Z,25.67
2023-10-29T02:25:19.746Z,29.80
2023-10-29T02:27:46.895Z,29.40
2023-10-29T02:30:21.533Z,26.40
2023-10-29T02:32:49.067Z,25.75
2023-10-29T02:37:50.649Z,29.88
2023-10-29T02:40:17.901Z,26.27
2023-10-29T02:42:52.230Z,31.05
2023-10-29T02:45:19.708Z,20.23
2023-10-29T02:50:27.294Z,27.42
2023-10-29T02:53:01.152Z,23.88
2023-10-29T02:55:28.422Z,31.92
2023-10-29T02:57:55.553Z,23.77
2023-10-29T03:00:29.186Z,23.92
2023-10-29T03:02:56.786Z,21.75
2023-10-29T03:05:42.813Z,18.73
2023-10-29T03:08:24.227Z,20.30
2023-10-29T03:10:58.290Z,17.80
2023-10-29T03:13:25.818Z,18.10
2023-10-29T03:18:27.662Z,15.98
2023-10-29T03:20:55.033Z,19.20
2023-10-29T03:23:22.772Z,23.42
2023-10-29T03:25:56.165Z,15.98
2023-10-29T03:28:23.420Z,20.55
2023-10-29T03:30:57.338Z,17.38
2023-10-29T03:33:24.796Z,18.75
2023-10-29T03:38:26.191Z,15.35
2023-10-29T03:40:53.442Z,16.40
2023-10-29T03:43:27.418Z,17.63
2023-10-29T03:45:54.900Z,15.05
2023-10-29T03:48:22.152Z,16.08
2023-10-29T03:50:56.393Z,17.30
2023-10-29T03:53:23.690Z,17.17
2023-10-29T03:55:54.511Z,18.48
2023-10-29T03:58:28.179Z,22.05
2023-10-29T04:00:55.420Z,17.88
2023-10-29T04:03:29.209Z,14.38
2023-10-29T04:06:03.320Z,14.60
2023-10-29T04:08:30.465Z,16.58
2023-10-29T04:10:57.701Z,16.95
2023-10-29T04:13:31.224Z,15.63
2023-10-29T04:15:58.550Z,16.77
2023-10-29T04:18:29.106Z,19.58
2023-10-29T04:21:03.177Z,17.30
2023-10-29T04:23:30.715Z,16.05
2023-10-29T04:26:04.101Z,19.02
2023-10-29T04:28:31.557Z,15.70
2023-10-29T04:30:58.941Z,14.52
2023-10-29T04:33:33.397Z,16.90
2023-10-29T04:36:00.908Z,14.95
2023-10-29T04:41:04.222Z,13.50
2023-10-29T04:46:05.231Z,17.05
2023-10-29T04:48:32.552Z,11.02
2023-10-29T04:51:16.380Z,15.35
2023-10-29T04:53:43.730Z,14.40
2023-10-29T04:56:11.191Z,13.32
2023-10-29T04:58:45.294Z,13.88
2023-10-29T05:01:12.564Z,11.95
2023-10-29T05:03:40.002Z,9.25
2023-10-29T05:08:41.556Z,17.50
2023-10-29T05:11:15.241Z,9.82
2023-10-29T05:13:42.472Z,10.13
2023-10-29T05:16:10.152Z,10.35
2023-10-29T05:18:44.171Z,15.60
2023-10-29T05:21:11.512Z,10.35
2023-10-29T05:23:46.368Z,12.93
2023-10-29T05:26:13.637Z,12.50
2023-10-29T05:28:40.782Z,9.23
2023-10-29T05:31:14.341Z,9.60
2023-10-29T05:33:41.707Z,10.48
2023-10-29T05:36:10.148Z,8.43
2023-10-29T05:38:44.446Z,10.73
2023-10-29T05:41:11.764Z,14.40
2023-10-29T05:43:38.950Z,15.13
2023-10-29T05:46:13.316Z,12.80
2023-10-29T05:48:40.746Z,10.23
2023-10-29T05:51:18.326Z,12.65
2023-10-29T05:53:45.904Z,10.68
2023-10-29T05:56:13.333Z,13.02
2023-10-29T05:58:47.219Z,10.00
2023-10-29T06:01:14.496Z,10.55
2023-10-29T06:03:48.507Z,8.77
2023-10-29T06:06:15.781Z,8.52
2023-10-29T06:08:43.211Z,9.23
2023-10-29T06:13:45.705Z,7.35
2023-10-29T06:18:46.458Z,11.23
2023-10-29T06:21:13.600Z,11.07
2023-10-29T06:23:47.133Z,11.35
2023-10-29T06:26:14.552Z,9.77
2023-10-29T06:28:48.282Z,10.38
2023-10-29T06:31:16.622Z,13.68
2023-10-29T06:33:43.867Z,10.55
2023-10-29T06:36:18.288Z,12.48
2023-10-29T06:38:45.760Z,13.40
2023-10-29T06:43:46.739Z,10.00
2023-10-29T06:46:14.055Z,9.90
2023-10-29T06:48:49.297Z,8.65
2023-10-29T06:51:23.149Z,8.07
2023-10-29T06:53:57.260Z,8.38
2023-10-29T06:56:24.579Z,10.80
2023-10-29T06:58:51.840Z,9.73
2023-10-29T07:01:26.222Z,9.43
2023-10-29T07:03:53.591Z,11.32
2023-10-29T07:06:29.307Z,10.32
2023-10-29T07:09:00.927Z,7.93
2023-10-29T07:11:37.157Z,9.13
2023-10-29T07:14:04.604Z,7.25
2023-10-29T07:16:31.802Z,11.82
2023-10-29T07:19:05.109Z,6.78
2023-10-29T07:21:32.664Z,9.13
2023-10-29T07:26:34.631Z,8.00
2023-10-29T07:29:02.612Z,8.93
2023-10-29T07:31:38.342Z,13.82
2023-10-29T07:34:05.595Z,7.30
2023-10-29T07:36:39.184Z,7.10
2023-10-29T07:39:07.574Z,9.98
2023-10-29T07:41:34.977Z,8.27
2023-10-29T07:46:36.842Z,9.65
2023-10-29T07:49:11.293Z,9.60
2023-10-29T07:51:45.298Z,7.05
2023-10-29T07:54:20.382Z,7.75
2023-10-29T07:56:48.114Z,10.80
2023-10-29T07:59:15.261Z,6.82
2023-10-29T08:01:50.074Z,8.15
2023-10-29T08:04:17.614Z,10.18
2023-10-29T08:09:19.871Z,7.20
2023-10-29T08:11:47.182Z,8.43
2023-10-29T08:14:21.267Z,10.52
2023-10-29T08:16:48.561Z,9.38
2023-10-29T08:19:23.235Z,7.30
2023-10-29T08:21:50.753Z,7.82
2023-10-29T08:26:51.236Z,5.90
2023-10-29T08:29:18.527Z,9.88
2023-10-29T08:31:52.267Z,7.32
2023-10-29T08:34:19.513Z,5.38
2023-10-29T08:36:46.828Z,5.30
2023-10-29T08:39:22.238Z,8.25
2023-10-29T08:41:49.829Z,7.70
2023-10-29T08:46:54.285Z,9.23
2023-10-29T08:49:41.320Z,8.32
2023-10-29T08:52:09.221Z,7.90
2023-10-29T08:54:50.425Z,11.13
2023-10-29T08:57:17.969Z,6.82
2023-10-29T09:02:19.312Z,6.13
2023-10-29T09:04:48.061Z,7.35
2023-10-29T09:07:22.259Z,7.63
2023-10-29T09:09:49.568Z,7.07
2023-10-29T09:12:16.825Z,7.63
2023-10-29T09:14:50.428Z,7.63
2023-10-29T09:17:17.806Z,6.63
2023-10-29T09:19:51.311Z,6.25
2023-10-29T09:22:18.507Z,14.88
2023-10-29T09:24:45.700Z,7.45
2023-10-29T09:27:19.343Z,5.32
2023-10-29T09:29:46.829Z,6.40
2023-10-29T09:32:21.453Z,5.80
2023-10-29T09:34:48.940Z,5.25
2023-10-29T09:39:51.223Z,6.90
2023-10-29T09:42:19.553Z,6.47
2023-10-29T09:44:53.430Z,5.55
2023-10-29T09:47:22.481Z,5.30
2023-10-29T09:50:03.287Z,5.40
2023-10-29T09:52:37.832Z,5.07
2023-10-29T09:55:20.403Z,5.35
2023-10-29T09:57:48.024Z,6.13
2023-10-29T10:00:25.711Z,5.88
2023-10-29T10:02:53.114Z,4.93
2023-10-29T10:07:55.352Z,4.70
2023-10-29T10:10:22.740Z,6.47
2023-10-29T10:12:58.245Z,5.65
2023-10-29T10:15:25.815Z,5.57
2023-10-29T10:18:07.559Z,6.55
2023-10-29T10:20:35.973Z,7.07
2023-10-29T10:23:03.140Z,6.30
2023-10-29T10:25:37.313Z,5.78
2023-10-29T10:28:05.122Z,4.55
2023-10-29T10:30:43.289Z,5.07
2023-10-29T10:35:54.427Z,6.93
2023-10-29T10:38:22.068Z,6.32
2023-10-29T10:41:04.366Z,8.60
2023-10-29T10:43:31.739Z,4.25
2023-10-29T10:46:01.335Z,8.13
2023-10-29T10:48:35.383Z,5.28
2023-10-29T10:51:12.605Z,3.95
2023-10-29T10:53:47.484Z,7.38
2023-10-29T10:56:14.791Z,8.80
2023-10-29T10:58:49.458Z,5.15
2023-10-29T11:01:16.951Z,5.82
2023-10-29T11:06:19.341Z,5.43
2023-10-29T11:08:46.668Z,5.22
2023-10-29T11:11:20.366Z,5.90
2023-10-29T11:13:47.615Z,4.35
2023-10-29T11:16:40.383Z,8.95
2023-10-29T11:19:27.187Z,5.13
2023-10-29T11:22:20.314Z,4.15
2023-10-29T11:25:06.392Z,4.65
2023-10-29T11:27:44.362Z,6.10
2023-10-29T11:30:18.396Z,5.05
2023-10-29T11:32:53.308Z,4.85
2023-10-29T11:35:21.097Z,4.60
2023-10-29T11:37:56.395Z,6.60
2023-10-29T11:40:26.890Z,3.72
2023-10-29T11:43:01.256Z,5.47
2023-10-29T11:45:33.176Z,6.45
2023-10-29T11:48:21.137Z,3.95
2023-10-29T11:51:13.332Z,8.02
2023-10-29T11:53:47.354Z,5.85
2023-10-29T11:56:15.694Z,6.88
2023-10-29T11:58:49.250Z,3.85
2023-10-29T12:01:20.505Z,4.05
2023-10-29T12:03:58.598Z,4.75
2023-10-29T12:08:53.145Z,4.82
2023-10-29T12:11:34.250Z,5.72
2023-10-29T12:14:01.584Z,5.53
2023-10-29T12:16:35.550Z,6.75
2023-10-29T12:19:05.710Z,6.53
2023-10-29T12:21:39.438Z,6.95
2023-10-29T12:24:07.025Z,7.60
2023-10-29T12:26:41.425Z,5.47
2023-10-29T12:29:08.772Z,10.68
2023-10-29T12:31:36.103Z,6.32
2023-10-29T12:34:10.325Z,4.90
2023-10-29T12:36:38.020Z,5.47
2023-10-29T12:39:12.487Z,6.55
2023-10-29T12:41:39.709Z,5.78
2023-10-29T12:44:22.454Z,5.95
2023-10-29T12:46:50.699Z,5.50
2023-10-29T12:49:33.251Z,6.05
2023-10-29T12:52:20.156Z,6.63
2023-10-29T12:54:47.887Z,6.15
2023-10-29T12:57:25.849Z,5.65
2023-10-29T12:59:53.439Z,6.90
2023-10-29T13:02:31.227Z,6.70
2023-10-29T13:04:58.637Z,5.30
2023-10-29T13:07:32.328Z,4.97
2023-10-29T13:10:05.387Z,6.18
2023-10-29T13:12:39.208Z,8.77
2023-10-29T13:15:08.077Z,4.88
2023-10-29T13:17:35.500Z,6.88
2023-10-29T13:22:45.755Z,6.70
2023-10-29T13:25:13.186Z,10.93
2023-10-29T13:27:48.291Z,7.57
2023-10-29T13:30:15.731Z,6.43
2023-10-29T13:32:49.592Z,12.07
2023-10-29T13:35:17.796Z,6.85
2023-10-29T13:37:45.555Z,5.03
2023-10-29T13:40:20.407Z,5.22
2023-10-29T13:42:47.796Z,5.35
2023-10-29T13:45:21.399Z,6.00
2023-10-29T13:47:48.891Z,7.88
2023-10-29T13:53:07.020Z,6.82
2023-10-29T13:55:41.348Z,7.95
2023-10-29T13:58:08.633Z,9.27
2023-10-29T14:00:35.894Z,4.93
2023-10-29T14:03:10.485Z,6.90
2023-10-29T14:05:38.021Z,6.93
2023-10-29T14:08:05.329Z,6.70
2023-10-29T14:10:39.254Z,7.90
2023-10-29T14:13:06.951Z,6.95
2023-10-29T14:15:41.430Z,9.40
2023-10-29T14:18:09.237Z,7.68
2023-10-29T14:20:36.492Z,8.35
2023-10-29T14:23:11.447Z,7.22
2023-10-29T14:25:38.700Z,7.95
2023-10-29T14:28:12.326Z,6.00
2023-10-29T14:30:41.534Z,5.88
2023-10-29T14:33:09.153Z,7.95
2023-10-29T14:35:43.456Z,6.00
2023-10-29T14:38:10.894Z,8.20
2023-10-29T14:40:38.164Z,9.75
2023-10-29T14:43:21.787Z,7.32
2023-10-29T14:45:50.396Z,7.80
2023-10-29T14:48:24.620Z,5.72
2023-10-29T14:51:00.394Z,6.10
2023-10-29T14:53:41.427Z,4.65
2023-10-29T14:56:08.770Z,7.05
2023-10-29T14:58:36.025Z,5.15
2023-10-29T15:01:12.686Z,7.15
2023-10-29T15:03:39.984Z,5.97
2023-10-29T15:06:11.285Z,5.75
2023-10-29T15:08:46.745Z,6.10
2023-10-29T15:11:26.202Z,5.00
2023-10-29T15:14:09.452Z,6.63
2023-10-29T15:16:36.789Z,4.32
2023-10-29T15:19:06.427Z,5.07
2023-10-29T15:21:41.499Z,6.43
2023-10-29T15:24:15.281Z,5.53
2023-10-29T15:26:42.602Z,1.85
2023-10-29T15:29:09.817Z,5.18
2023-10-29T15:31:43.402Z,3.20
2023-10-29T15:34:11.062Z,2.45
2023-10-29T15:36:45.495Z,2.35
2023-10-29T15:39:15.973Z,2.47
2023-10-29T15:41:43.489Z,1.67
2023-10-29T15:44:17.433Z,4.68
2023-10-29T15:46:45.303Z,4.20
2023-10-29T15:49:20.524Z,3.42
2023-10-29T15:51:55.144Z,5.63
2023-10-29T15:54:29.483Z,2.40
2023-10-29T15:56:56.823Z,1.58
2023-10-29T15:59:24.947Z,1.70
2023-10-29T16:02:00.339Z,1.67
2023-10-29T16:04:28.370Z,1.48
2023-10-29T16:07:02.385Z,1.63
2023-10-29T16:09:29.690Z,3.47
2023-10-29T16:11:56.941Z,1.23
2023-10-29T16:14:32.404Z,1.65
2023-10-29T16:17:00.101Z,1.55
2023-10-29T16:19:34.391Z,1.58
2023-10-29T16:22:01.718Z,1.02
2023-10-29T16:24:30.317Z,1.75
2023-10-29T16:27:04.415Z,0.90
2023-10-29T16:29:31.636Z,2.00
2023-10-29T16:32:06.678Z,0.98
2023-10-29T16:34:34.112Z,0.82
2023-10-29T16:37:01.297Z,0.70
2023-10-29T16:39:35.468Z,0.93
2023-10-29T16:42:02.954Z,1.10
2023-10-29T16:47:04.514Z,1.25
2023-10-29T16:49:32.373Z,1.20
2023-10-29T16:52:13.466Z,0.70
2023-10-29T16:54:40.856Z,0.50
2023-10-29T16:57:08.082Z,0.40
2023-10-29T16:59:42.306Z,1.08
2023-10-29T17:02:09.533Z,0.70
2023-10-29T17:04:44.030Z,2.60
2023-10-29T17:07:13.275Z,0.80
2023-10-29T17:09:40.909Z,1.05
2023-10-29T17:12:15.321Z,0.73
2023-10-29T17:14:42.598Z,0.50
2023-10-29T17:17:18.527Z,1.90
2023-10-29T17:19:47.107Z,0.73
2023-10-29T17:22:14.683Z,0.55
2023-10-29T17:24:48.430Z,0.55
2023-10-29T17:27:15.835Z,0.60
2023-10-29T17:29:49.679Z,0.45
2023-10-29T17:32:16.997Z,0.32
2023-10-29T17:34:44.270Z,0.40
2023-10-29T17:37:19.393Z,0.60
2023-10-29T17:39:47.217Z,0.50
2023-10-29T17:42:14.718Z,0.40
2023-10-29T17:47:17.297Z,0.30
2023-10-29T17:50:06.363Z,0.60
2023-10-29T17:52:48.305Z,0.70
2023-10-29T17:55:16.551Z,3.75
2023-10-29T17:57:44.124Z,0.52
2023-10-29T18:02:44.847Z,0.50
2023-10-29T18:05:12.351Z,0.50
2023-10-29T18:10:14.036Z,0.63
2023-10-29T18:12:41.258Z,0.40
2023-10-29T18:15:15.380Z,0.57
2023-10-29T18:17:42.666Z,1.13
2023-10-29T18:20:10.123Z,1.35
2023-10-29T18:22:44.546Z,0.73
2023-10-29T18:25:11.776Z,0.40
2023-10-29T18:27:46.601Z,0.80
2023-10-29T18:30:14.294Z,0.60
2023-10-29T18:32:42.601Z,0.50
2023-10-29T18:35:16.392Z,0.38
2023-10-29T18:37:50.575Z,0.90
2023-10-29T18:40:26.102Z,0.43
2023-10-29T18:42:53.285Z,0.40
2023-10-29T18:45:20.605Z,0.50
2023-10-29T18:47:56.315Z,0.50
2023-10-29T18:50:30.347Z,0.50
2023-10-29T18:53:11.469Z,0.50
2023-10-29T18:55:38.870Z,0.50
2023-10-29T18:58:06.120Z,0.95
2023-10-29T19:00:40.465Z,0.70
2023-10-29T19:03:07.906Z,0.50
2023-10-29T19:08:11.627Z,0.50
2023-10-29T19:10:38.927Z,0.50
2023-10-29T19:13:06.135Z,1.58
2023-10-29T19:15:41.517Z,0.68
2023-10-29T19:18:08.931Z,0.73
2023-10-29T19:20:36.146Z,0.77
2023-10-29T19:23:10.366Z,0.55
2023-10-29T19:25:37.763Z,1.08
2023-10-29T19:28:12.461Z,1.45
2023-10-29T19:30:55.160Z,0.40
2023-10-29T19:33:37.602Z,0.60
2023-10-29T19:36:14.768Z,0.73
2023-10-29T19:38:49.510Z,0.87
2023-10-29T19:41:16.778Z,1.42
2023-10-29T19:43:44.048Z,0.68
2023-10-29T19:46:18.402Z,0.98
2023-10-29T19:48:45.980Z,0.77
2023-10-29T19:53:54.619Z,0.50
2023-10-29T19:58:57.264Z,0.40
2023-10-29T20:01:31.669Z,0.70
2023-10-29T20:04:00.229Z,0.60
2023-10-29T20:06:27.972Z,0.88
2023-10-29T20:09:03.424Z,0.40
2023-10-29T20:11:30.846Z,0.43
2023-10-29T20:14:07.473Z,0.50
2023-10-29T20:16:34.801Z,0.43
2023-10-29T20:19:09.602Z,1.75
2023-10-29T20:21:37.307Z,0.52
2023-10-29T20:24:04.706Z,1.42
2023-10-29T20:26:38.377Z,0.73
2023-10-29T20:29:05.742Z,0.50
2023-10-29T20:31:39.571Z,1.02
2023-10-29T20:34:06.867Z,1.33
2023-10-29T20:36:47.755Z,0.43
2023-10-29T20:39:21.416Z,0.45
2023-10-29T20:41:55.415Z,0.60
2023-10-29T20:44:29.313Z,0.80
2023-10-29T20:46:56.441Z,0.73
2023-10-29T20:49:23.852Z,0.20
2023-10-29T20:54:31.368Z,0.40
2023-10-29T20:57:05.502Z,0.60
2023-10-29T20:59:32.770Z,0.60
2023-10-29T21:01:59.939Z,0.50
2023-10-29T21:04:34.403Z,0.30
2023-10-29T21:07:01.722Z,0.40
2023-10-29T21:09:35.601Z,0.60
2023-10-29T21:12:02.989Z,1.88
2023-10-29T21:14:30.129Z,0.55
2023-10-29T21:17:04.576Z,0.85
2023-10-29T21:19:31.838Z,0.98
2023-10-29T21:22:08.353Z,0.57
2023-10-29T21:24:35.705Z,0.50
2023-10-29T21:27:02.899Z,0.43
2023-10-29T21:29:37.378Z,0.40
2023-10-29T21:32:04.616Z,0.55
2023-10-29T21:34:38.542Z,0.65
2023-10-29T21:37:06.204Z,0.52
2023-10-29T21:39:33.681Z,0.40
2023-10-29T21:44:34.907Z,0.82
2023-10-29T21:47:02.166Z,0.52
2023-10-29T21:49:36.411Z,1.13
2023-10-29T21:52:10.388Z,0.85
2023-10-29T21:54:56.458Z,0.68
2023-10-29T21:57:23.871Z,0.40
2023-10-29T21:59:51.084Z,0.50
2023-10-29T22:02:24.402Z,1.77
2023-10-29T22:04:51.732Z,0.40
2023-10-29T22:07:25.962Z,0.52
2023-10-29T22:09:53.554Z,1.38
2023-10-29T22:14:54.403Z,0.20
2023-10-29T22:17:21.726Z,0.40
2023-10-29T22:19:55.568Z,1.73
2023-10-29T22:22:22.836Z,0.40
2023-10-29T22:24:49.963Z,0.32
2023-10-29T22:27:23.529Z,0.47
2023-10-29T22:29:50.868Z,0.80
2023-10-29T22:32:24.691Z,0.40
2023-10-29T22:34:52.049Z,0.40
2023-10-29T22:37:19.292Z,0.57
2023-10-29T22:39:53.383Z,0.40
2023-10-29T22:42:20.711Z,0.47
2023-10-29T22:44:55.428Z,0.43
2023-10-29T22:47:22.787Z,2.70
2023-10-29T22:49:57.582Z,0.30
2023-10-29T22:52:31.386Z,0.93
2023-10-29T22:55:05.540Z,0.50
2023-10-29T22:57:32.836Z,0.60
2023-10-29T23:00:00.002Z,1.85
2023-10-29T23:02:34.543Z,0.35
2023-10-29T23:05:02.129Z,0.40
2023-10-29T23:10:03.408Z,0.63
2023-10-29T23:12:30.771Z,0.73
2023-10-29T23:15:04.477Z,0.50
2023-10-29T23:17:31.945Z,0.30
2023-10-29T23:22:32.709Z,0.40
2023-10-29T23:24:59.831Z,0.40
2023-10-29T23:27:33.501Z,0.40
2023-10-29T23:30:00.878Z,0.60
2023-10-29T23:32:34.516Z,0.45
2023-10-29T23:35:01.810Z,0.52
2023-10-29T23:37:29.087Z,0.40
2023-10-29T23:40:03.461Z,0.47
2023-10-29T23:42:30.642Z,0.40
2023-10-29T23:45:04.671Z,1.17
2023-10-29T23:47:31.844Z,0.50
2023-10-29T23:49:59.152Z,0.40
2023-10-29T23:52:35.485Z,0.30
2023-10-29T23:55:02.765Z,0.55
2023-10-29T23:57:36.605Z,1.38
